Time;durP1;ratioP1;P1;durP2;ratioP2;P2;SDS_P1;SDS_P2;PMS_P1;PMS_P2;Temp;Humidity;BMP_temperature;BMP_pressure;BME280_temperature;BME280_humidity;BME280_pressure;Samples;Min_cycle;Max_cycle;Signal;HPM_P1;HPM_P2
2023/12/04 00:01:21;;;;;;;29.63;15.20;;;-3.60;85.50;;;;;;5043998;28;20204;-72
2023/12/04 00:03:47;;;;;;;35.00;15.10;;;-3.70;85.50;;;;;;5045130;28;20190;-72
2023/12/04 00:06:13;;;;;;;38.03;17.50;;;-3.80;85.30;;;;;;5044291;28;20704;-71
2023/12/04 00:08:39;;;;;;;39.05;16.10;;;-3.80;85.50;;;;;;5042083;28;20201;-71
2023/12/04 00:11:06;;;;;;;38.77;16.60;;;-3.80;85.20;;;;;;5041712;28;20215;-70
2023/12/04 00:13:31;;;;;;;37.83;18.42;;;-3.80;85.30;;;;;;5042672;28;20887;-71
2023/12/04 00:15:57;;;;;;;39.60;15.80;;;-3.80;85.30;;;;;;5043106;28;20185;-70
2023/12/04 00:18:22;;;;;;;38.00;17.60;;;-3.70;85.30;;;;;;5046071;28;20189;-71
2023/12/04 00:20:48;;;;;;;32.70;16.67;;;-3.70;85.30;;;;;;5045851;28;20863;-72
2023/12/04 00:23:14;;;;;;;39.70;17.47;;;-3.70;85.30;;;;;;5045728;28;20173;-71
2023/12/04 00:25:39;;;;;;;37.20;16.40;;;-3.70;85.00;;;;;;5044331;28;20600;-70
2023/12/04 00:28:05;;;;;;;33.57;15.87;;;-3.80;85.20;;;;;;5046297;28;20302;-71
2023/12/04 00:30:30;;;;;;;35.30;16.70;;;-3.80;85.00;;;;;;5051007;28;20228;-72
2023/12/04 00:32:56;;;;;;;33.73;17.13;;;-3.90;85.20;;;;;;5047604;28;20222;-71
2023/12/04 00:35:22;;;;;;;44.77;16.70;;;-3.90;85.20;;;;;;5040221;28;20193;-71
2023/12/04 00:37:47;;;;;;;44.00;17.63;;;-4.00;85.20;;;;;;5038385;28;20212;-72
2023/12/04 00:40:13;;;;;;;32.80;15.50;;;-4.00;85.20;;;;;;5040866;28;21028;-71
2023/12/04 00:42:38;;;;;;;34.70;16.90;;;-4.10;85.20;;;;;;5043926;28;20193;-71
2023/12/04 00:45:04;;;;;;;33.27;16.33;;;-4.00;85.30;;;;;;5048069;28;20176;-71
2023/12/04 00:47:30;;;;;;;34.55;15.23;;;-4.00;85.30;;;;;;5042942;28;20181;-72
2023/12/04 00:49:56;;;;;;;42.67;16.83;;;-4.00;85.30;;;;;;5045779;28;20981;-71
2023/12/04 00:52:21;;;;;;;40.87;17.33;;;-4.00;85.50;;;;;;5036262;28;20192;-73
2023/12/04 00:54:47;;;;;;;41.37;17.20;;;-4.10;85.30;;;;;;5044024;28;20239;-72
2023/12/04 00:57:12;;;;;;;42.87;17.40;;;-4.10;85.30;;;;;;5036878;28;20177;-72
2023/12/04 00:59:38;;;;;;;36.80;17.40;;;-4.20;85.50;;;;;;5043030;28;20229;-70
2023/12/04 01:02:04;;;;;;;36.63;16.87;;;-4.20;85.50;;;;;;5041412;28;20205;-72
2023/12/04 01:04:31;;;;;;;39.20;16.95;;;-4.10;85.60;;;;;;5042902;28;20761;-71
2023/12/04 01:06:56;;;;;;;36.75;16.65;;;-4.00;85.60;;;;;;5044351;28;20181;-70
2023/12/04 01:09:24;;;;;;;33.20;16.33;;;-4.00;85.60;;;;;;5042131;28;20208;-71
2023/12/04 01:11:52;;;;;;;40.55;15.13;;;-4.00;85.60;;;;;;5044087;28;20185;-71
2023/12/04 01:14:17;;;;;;;38.05;16.27;;;-3.90;85.60;;;;;;5044332;28;20722;-73
2023/12/04 01:16:43;;;;;;;37.53;16.00;;;-3.90;85.50;;;;;;5046885;28;20192;-71
2023/12/04 01:19:08;;;;;;;36.97;16.10;;;-3.90;85.50;;;;;;5044755;28;20291;-71
2023/12/04 01:21:34;;;;;;;39.40;17.20;;;-3.80;85.60;;;;;;5045709;28;20181;-71
2023/12/04 01:24:00;;;;;;;33.23;16.00;;;-3.80;85.30;;;;;;5045729;28;20288;-71
2023/12/04 01:26:25;;;;;;;31.03;15.73;;;-3.80;85.20;;;;;;5044156;28;20193;-72
2023/12/04 01:28:51;;;;;;;35.37;14.50;;;-3.90;85.00;;;;;;5038156;28;20192;-71
2023/12/04 01:31:16;;;;;;;36.27;16.10;;;-3.90;85.00;;;;;;5042960;28;20247;-72
2023/12/04 01:33:42;;;;;;;33.73;15.80;;;-3.90;85.00;;;;;;5036903;28;20185;-70
2023/12/04 01:36:08;;;;;;;35.73;15.80;;;-4.00;84.90;;;;;;5038349;28;20283;-69
2023/12/04 01:38:33;;;;;;;39.25;16.30;;;-4.10;84.90;;;;;;5035803;28;20189;-71
2023/12/04 01:40:59;;;;;;;31.63;13.87;;;-4.00;85.00;;;;;;5041973;28;20269;-70
2023/12/04 01:43:24;;;;;;;31.17;14.90;;;-3.90;85.20;;;;;;5037538;28;20212;-71
2023/12/04 01:45:51;;;;;;;33.03;15.57;;;-3.90;85.00;;;;;;5044625;28;20181;-71
2023/12/04 01:48:17;;;;;;;33.17;15.25;;;-4.00;84.90;;;;;;5038574;28;20189;-70
2023/12/04 01:50:44;;;;;;;31.37;14.97;;;-4.10;84.90;;;;;;5039353;28;20239;-72
2023/12/04 01:53:10;;;;;;;33.35;15.40;;;-4.10;84.90;;;;;;5038563;28;20434;-71
2023/12/04 01:55:37;;;;;;;31.07;15.47;;;-4.10;85.00;;;;;;5041796;28;20193;-72
2023/12/04 01:58:03;;;;;;;33.00;14.80;;;-4.00;85.20;;;;;;5040071;28;20416;-71
2023/12/04 02:00:31;;;;;;;36.17;15.90;;;-3.90;85.30;;;;;;5042782;28;20224;-71
2023/12/04 02:02:57;;;;;;;30.58;14.48;;;-3.70;85.30;;;;;;5044220;28;20427;-71
2023/12/04 02:05:24;;;;;;;33.67;15.52;;;-3.80;85.00;;;;;;5047526;28;20220;-71
2023/12/04 02:07:50;;;;;;;31.10;13.70;;;-3.80;84.90;;;;;;5043403;28;20747;-72
2023/12/04 02:10:15;;;;;;;31.43;14.27;;;-3.80;84.90;;;;;;5044931;28;20307;-71
2023/12/04 02:12:41;;;;;;;30.70;14.00;;;-3.80;84.90;;;;;;5041155;28;20431;-71
2023/12/04 02:15:08;;;;;;;31.00;15.00;;;-3.90;84.90;;;;;;5045482;28;20193;-71
2023/12/04 02:17:35;;;;;;;33.42;15.80;;;-4.00;84.90;;;;;;5043640;28;20183;-71
2023/12/04 02:20:03;;;;;;;31.15;14.73;;;-3.90;84.90;;;;;;5040832;28;20224;-70
2023/12/04 02:22:28;;;;;;;35.45;15.50;;;-3.90;85.20;;;;;;5037443;28;20191;-70
2023/12/04 02:24:58;;;;;;;33.30;15.00;;;-3.90;84.90;;;;;;5039995;28;20185;-70
2023/12/04 02:27:28;;;;;;;28.58;13.25;;;-3.80;84.90;;;;;;5038486;28;20196;-71
2023/12/04 02:29:59;;;;;;;34.58;15.52;;;-3.80;84.40;;;;;;5039737;28;20200;-71
2023/12/04 02:32:29;;;;;;;30.00;14.15;;;-3.80;84.40;;;;;;5041699;28;20185;-70
2023/12/04 02:34:56;;;;;;;29.85;13.80;;;-3.80;84.30;;;;;;5038014;28;20265;-71
2023/12/04 02:37:23;;;;;;;36.63;16.40;;;-3.90;84.10;;;;;;5040392;28;20216;-71
2023/12/04 02:39:52;;;;;;;29.30;14.57;;;-3.90;84.30;;;;;;5036213;28;20496;-71
2023/12/04 02:42:19;;;;;;;34.03;14.90;;;-3.80;84.40;;;;;;5043634;28;20211;-70
2023/12/04 02:44:44;;;;;;;35.40;15.10;;;-3.90;84.10;;;;;;5041560;28;20188;-72
2023/12/04 02:47:11;;;;;;;33.10;15.37;;;-3.90;84.00;;;;;;5049128;28;20188;-71
2023/12/04 02:49:36;;;;;;;42.25;14.48;;;-3.90;83.80;;;;;;5045238;28;20591;-71
2023/12/04 02:52:02;;;;;;;25.17;12.70;;;-4.00;84.00;;;;;;5044643;28;20188;-71
2023/12/04 02:54:28;;;;;;;35.40;15.57;;;-4.00;84.00;;;;;;5046907;28;20229;-71
2023/12/04 02:56:54;;;;;;;38.53;15.53;;;-4.10;84.00;;;;;;5044232;28;20427;-70
2023/12/04 02:59:19;;;;;;;36.93;14.20;;;-4.10;84.10;;;;;;5037238;28;20466;-71
2023/12/04 03:01:45;;;;;;;35.10;14.13;;;-4.10;84.10;;;;;;5044113;28;20285;-70
2023/12/04 03:04:11;;;;;;;31.17;13.90;;;-4.10;84.40;;;;;;5043091;28;20187;-70
2023/12/04 03:06:36;;;;;;;24.87;14.10;;;-4.00;84.60;;;;;;5038025;28;20654;-70
2023/12/04 03:09:03;;;;;;;35.93;14.77;;;-4.00;84.60;;;;;;5035409;28;20451;-70
2023/12/04 03:11:29;;;;;;;36.20;15.55;;;-4.00;84.40;;;;;;5038046;28;20189;-71
2023/12/04 03:13:55;;;;;;;33.87;14.93;;;-4.00;84.40;;;;;;5035427;28;20196;-71
2023/12/04 03:16:20;;;;;;;35.43;14.57;;;-4.00;84.60;;;;;;5038152;28;20193;-70
2023/12/04 03:18:46;;;;;;;30.20;14.50;;;-4.00;84.40;;;;;;5038819;28;20186;-71
2023/12/04 03:21:12;;;;;;;39.03;16.37;;;-4.00;84.60;;;;;;5038527;28;20212;-70
2023/12/04 03:23:37;;;;;;;30.57;14.70;;;-3.90;84.40;;;;;;5042955;28;20184;-71
2023/12/04 03:26:03;;;;;;;39.40;15.70;;;-3.90;84.30;;;;;;5038837;28;20494;-71
2023/12/04 03:28:29;;;;;;;34.37;15.57;;;-3.90;84.10;;;;;;5039164;28;20601;-71
2023/12/04 03:30:54;;;;;;;35.93;15.77;;;-4.00;84.00;;;;;;5033183;28;20759;-70
2023/12/04 03:33:20;;;;;;;34.40;15.70;;;-4.00;84.00;;;;;;5046778;28;20189;-71
2023/12/04 03:35:46;;;;;;;34.77;15.70;;;-4.10;84.10;;;;;;5041643;28;20597;-71
2023/12/04 03:38:12;;;;;;;31.93;14.93;;;-4.10;84.30;;;;;;5044190;28;20740;-71
2023/12/04 03:40:37;;;;;;;37.37;16.50;;;-4.00;84.40;;;;;;5036658;28;20308;-70
2023/12/04 03:43:03;;;;;;;34.00;15.07;;;-3.90;84.70;;;;;;5050409;28;20232;-71
2023/12/04 03:45:28;;;;;;;29.40;14.03;;;-3.90;84.30;;;;;;5038876;28;20597;-71
2023/12/04 03:47:54;;;;;;;34.70;14.57;;;-4.00;84.10;;;;;;5045609;28;20185;-71
2023/12/04 03:50:20;;;;;;;33.53;14.60;;;-4.00;84.00;;;;;;5036823;28;20701;-71
2023/12/04 03:52:45;;;;;;;30.07;14.37;;;-3.90;84.00;;;;;;5040772;28;20458;-71
2023/12/04 03:55:11;;;;;;;35.07;15.37;;;-4.00;84.10;;;;;;5033072;28;20181;-71
2023/12/04 03:57:37;;;;;;;30.40;14.43;;;-4.10;84.10;;;;;;5040437;28;20188;-71
2023/12/04 04:00:03;;;;;;;27.17;13.77;;;-4.10;84.10;;;;;;5041275;28;20220;-71
2023/12/04 04:02:29;;;;;;;30.95;14.65;;;-4.20;84.30;;;;;;5044248;28;20427;-71
2023/12/04 04:04:55;;;;;;;37.00;15.63;;;-4.00;84.60;;;;;;5039990;28;20680;-71
2023/12/04 04:07:20;;;;;;;38.80;16.15;;;-3.80;84.70;;;;;;5044275;28;20184;-71
2023/12/04 04:09:46;;;;;;;36.03;16.87;;;-3.90;84.30;;;;;;5038611;28;20230;-72
2023/12/04 04:12:11;;;;;;;34.50;15.00;;;-3.80;84.30;;;;;;5044974;28;20657;-71
2023/12/04 04:14:37;;;;;;;30.00;12.93;;;-3.80;84.00;;;;;;5042953;28;20198;-71
2023/12/04 04:17:03;;;;;;;31.80;14.10;;;-3.70;84.10;;;;;;5047434;28;20188;-71
2023/12/04 04:19:29;;;;;;;34.20;14.30;;;-3.70;83.60;;;;;;5056436;28;20999;-72
2023/12/04 04:21:55;;;;;;;25.43;13.20;;;-3.80;83.40;;;;;;5046152;28;20419;-72
2023/12/04 04:24:20;;;;;;;30.37;13.70;;;-3.80;83.60;;;;;;5043507;28;20172;-71
2023/12/04 04:26:46;;;;;;;31.03;13.97;;;-3.80;83.70;;;;;;5045857;28;20237;-71
2023/12/04 04:29:13;;;;;;;28.87;14.87;;;-3.80;83.70;;;;;;5041142;28;20208;-71
2023/12/04 04:31:38;;;;;;;29.20;14.70;;;-3.80;83.70;;;;;;5038300;28;20189;-71
2023/12/04 04:34:04;;;;;;;24.97;12.03;;;-3.80;83.80;;;;;;5041757;28;20188;-72
2023/12/04 04:36:29;;;;;;;30.80;13.40;;;-3.70;84.00;;;;;;5043503;28;20176;-72
2023/12/04 04:38:55;;;;;;;24.53;12.40;;;-3.70;83.70;;;;;;5041903;28;20795;-72
2023/12/04 04:41:21;;;;;;;25.20;13.40;;;-3.60;83.40;;;;;;5044046;28;20228;-70
2023/12/04 04:43:46;;;;;;;31.07;13.87;;;-3.80;83.10;;;;;;5040538;28;20193;-70
2023/12/04 04:46:12;;;;;;;28.60;12.87;;;-3.80;83.40;;;;;;5043723;28;20250;-70
2023/12/04 04:48:38;;;;;;;27.70;13.10;;;-3.70;83.40;;;;;;5048084;28;20177;-70
2023/12/04 04:51:04;;;;;;;31.43;15.20;;;-3.70;83.40;;;;;;5041169;28;20212;-71
2023/12/04 04:53:29;;;;;;;32.72;15.25;;;-3.70;83.40;;;;;;5043713;28;20184;-71
2023/12/04 04:55:55;;;;;;;32.43;14.00;;;-3.50;83.40;;;;;;5039623;28;20742;-70
2023/12/04 04:58:20;;;;;;;28.33;13.23;;;-3.50;83.10;;;;;;5043910;28;20261;-70
2023/12/04 05:00:47;;;;;;;25.70;13.70;;;-3.50;83.10;;;;;;5041564;28;20223;-71
2023/12/04 05:03:12;;;;;;;30.83;15.05;;;-3.70;83.00;;;;;;5049393;28;20184;-71
2023/12/04 05:05:38;;;;;;;24.70;14.00;;;-3.70;83.10;;;;;;5039886;28;20280;-71
2023/12/04 05:08:04;;;;;;;35.10;15.00;;;-3.70;83.30;;;;;;5045033;28;20185;-72
2023/12/04 05:10:29;;;;;;;25.60;13.97;;;-3.60;83.60;;;;;;5042790;28;20711;-70
2023/12/04 05:12:55;;;;;;;30.10;14.07;;;-3.40;83.40;;;;;;5044186;28;20193;-70
2023/12/04 05:15:21;;;;;;;29.13;12.80;;;-3.30;83.40;;;;;;5041007;28;20180;-70
2023/12/04 05:17:47;;;;;;;24.70;12.13;;;-3.40;83.00;;;;;;5042930;28;20432;-71
2023/12/04 05:20:15;;;;;;;26.33;13.47;;;-3.30;82.80;;;;;;5042208;28;20263;-71
2023/12/04 05:22:41;;;;;;;29.17;11.90;;;-3.40;82.80;;;;;;5043399;28;20428;-72
2023/12/04 05:25:07;;;;;;;26.07;11.77;;;-3.30;82.80;;;;;;5043102;28;20527;-70
2023/12/04 05:27:32;;;;;;;31.65;12.88;;;-3.20;82.80;;;;;;5043570;28;20221;-70
2023/12/04 05:29:58;;;;;;;26.90;12.47;;;-3.10;82.80;;;;;;5040669;28;20232;-71
2023/12/04 05:32:24;;;;;;;23.80;12.07;;;-3.20;82.50;;;;;;5039874;28;20583;-71
2023/12/04 05:34:49;;;;;;;27.60;12.40;;;-3.10;82.40;;;;;;5038168;28;20193;-71
2023/12/04 05:37:15;;;;;;;25.37;12.50;;;-3.10;81.90;;;;;;5039312;28;20200;-70
2023/12/04 05:39:41;;;;;;;24.03;12.00;;;-3.00;81.70;;;;;;5041083;28;20235;-71
2023/12/04 05:42:07;;;;;;;26.95;12.95;;;-2.90;81.50;;;;;;5040808;28;20255;-71
2023/12/04 05:44:34;;;;;;;24.37;11.27;;;-2.90;81.40;;;;;;5037354;28;20234;-70
2023/12/04 05:47:00;;;;;;;21.60;11.25;;;-2.80;81.20;;;;;;5037648;28;20480;-71
2023/12/04 05:49:25;;;;;;;22.20;10.47;;;-2.80;80.90;;;;;;5041648;28;20586;-71
2023/12/04 05:51:51;;;;;;;24.93;11.50;;;-2.70;80.80;;;;;;5038993;28;20177;-70
2023/12/04 05:54:16;;;;;;;24.07;12.00;;;-2.70;80.60;;;;;;5042997;28;20670;-74
2023/12/04 05:56:42;;;;;;;32.37;13.60;;;-2.80;80.30;;;;;;5041739;28;20185;-74
2023/12/04 05:59:08;;;;;;;31.97;13.20;;;-3.00;79.90;;;;;;5047182;28;20204;-74
2023/12/04 06:01:34;;;;;;;24.73;12.70;;;-3.10;80.00;;;;;;5044425;28;20491;-73
2023/12/04 06:03:59;;;;;;;30.13;14.00;;;-3.20;80.30;;;;;;5047615;28;20201;-72
2023/12/04 06:06:25;;;;;;;29.47;13.63;;;-3.20;80.60;;;;;;5039889;28;20185;-71
2023/12/04 06:08:50;;;;;;;24.87;12.20;;;-3.30;80.80;;;;;;5048894;28;20272;-71
2023/12/04 06:11:16;;;;;;;29.57;13.17;;;-3.30;81.10;;;;;;5041813;28;20216;-72
2023/12/04 06:13:41;;;;;;;28.53;13.10;;;-3.40;81.40;;;;;;5040938;28;20193;-71
2023/12/04 06:16:07;;;;;;;25.60;12.50;;;-3.30;81.80;;;;;;5044295;28;20547;-70
2023/12/04 06:18:33;;;;;;;23.77;11.82;;;-3.30;81.90;;;;;;5041825;28;20193;-70
2023/12/04 06:20:59;;;;;;;29.93;12.23;;;-3.10;82.20;;;;;;5042655;28;20221;-72
2023/12/04 06:23:24;;;;;;;27.30;12.27;;;-3.10;82.20;;;;;;5046007;28;20195;-71
2023/12/04 06:25:50;;;;;;;24.17;10.80;;;-3.10;82.10;;;;;;5044706;28;20180;-71
2023/12/04 06:28:16;;;;;;;28.97;12.87;;;-3.00;81.90;;;;;;5042884;28;20176;-71
2023/12/04 06:30:42;;;;;;;33.20;14.00;;;-3.00;81.70;;;;;;5033358;28;20597;-71
2023/12/04 06:33:08;;;;;;;25.50;12.87;;;-3.20;81.50;;;;;;5042699;28;20419;-72
2023/12/04 06:35:34;;;;;;;31.43;13.33;;;-3.30;81.70;;;;;;5032694;28;20439;-71
2023/12/04 06:38:05;;;;;;;35.40;14.87;;;-3.40;82.10;;;;;;5040978;28;20473;-73
2023/12/04 06:40:32;;;;;;;33.13;13.32;;;-3.40;82.40;;;;;;5036040;28;20574;-70
2023/12/04 06:42:57;;;;;;;28.30;13.48;;;-3.40;82.70;;;;;;5041565;28;20189;-73
2023/12/04 06:45:23;;;;;;;25.30;11.50;;;-3.50;82.80;;;;;;5039898;28;20188;-71
2023/12/04 06:47:50;;;;;;;25.40;11.80;;;-3.40;83.00;;;;;;5043284;28;20441;-71
2023/12/04 06:50:16;;;;;;;29.70;12.38;;;-3.40;83.30;;;;;;5039092;28;20458;-71
2023/12/04 06:52:42;;;;;;;27.73;11.37;;;-3.30;83.40;;;;;;5040965;28;20199;-71
2023/12/04 06:55:08;;;;;;;26.33;12.27;;;-3.30;83.30;;;;;;5040146;28;20192;-71
2023/12/04 06:57:34;;;;;;;25.45;12.43;;;-3.30;83.00;;;;;;5041681;28;20427;-72
2023/12/04 06:59:59;;;;;;;30.43;13.80;;;-3.20;82.70;;;;;;5050957;28;20235;-71
2023/12/04 07:02:25;;;;;;;24.13;12.10;;;-3.10;82.50;;;;;;5043955;28;20419;-71
2023/12/04 07:04:51;;;;;;;28.90;11.17;;;-3.00;81.90;;;;;;5044537;28;20223;-71
2023/12/04 07:07:16;;;;;;;26.40;12.33;;;-3.00;81.40;;;;;;5034681;28;20268;-71
2023/12/04 07:09:42;;;;;;;27.80;12.57;;;-3.10;81.10;;;;;;5040914;28;20521;-71
2023/12/04 07:12:07;;;;;;;29.13;12.80;;;-3.20;80.90;;;;;;5035197;28;20268;-71
2023/12/04 07:14:33;;;;;;;26.43;13.83;;;-3.30;81.10;;;;;;5039474;28;20201;-71
2023/12/04 07:17:00;;;;;;;27.10;13.23;;;-3.30;81.20;;;;;;5037716;28;20722;-73
2023/12/04 07:19:26;;;;;;;32.40;13.85;;;-3.30;81.70;;;;;;5043055;28;20474;-71
2023/12/04 07:21:52;;;;;;;33.50;14.27;;;-3.30;81.90;;;;;;5042152;28;20177;-72
2023/12/04 07:24:18;;;;;;;30.60;14.03;;;-3.10;82.40;;;;;;5042491;28;20672;-71
2023/12/04 07:26:43;;;;;;;28.87;14.30;;;-3.10;82.40;;;;;;5037983;28;20204;-71
2023/12/04 07:29:09;;;;;;;24.63;13.00;;;-2.90;82.70;;;;;;5041552;28;20184;-73
2023/12/04 07:31:35;;;;;;;24.27;12.77;;;-2.90;82.50;;;;;;5039483;28;20192;-71
2023/12/04 07:34:01;;;;;;;24.03;13.00;;;-2.70;82.70;;;;;;5048412;28;20262;-71
2023/12/04 07:36:28;;;;;;;32.08;13.77;;;-2.70;82.50;;;;;;5051677;28;20191;-72
2023/12/04 07:38:53;;;;;;;29.05;12.82;;;-2.60;82.40;;;;;;5048157;28;20256;-71
2023/12/04 07:41:19;;;;;;;28.60;11.87;;;-2.70;82.10;;;;;;5047706;28;20306;-71
2023/12/04 07:43:45;;;;;;;26.73;12.48;;;-2.70;81.90;;;;;;5047387;28;20920;-71
2023/12/04 07:46:11;;;;;;;28.13;13.20;;;-2.70;81.90;;;;;;5042395;28;20184;-71
2023/12/04 07:48:37;;;;;;;27.57;13.57;;;-2.60;81.80;;;;;;5046065;28;20434;-72
2023/12/04 07:51:03;;;;;;;32.72;13.48;;;-2.70;81.80;;;;;;5045752;28;20244;-71
2023/12/04 07:53:29;;;;;;;26.45;13.82;;;-2.60;81.50;;;;;;5046347;28;20185;-73
2023/12/04 07:55:54;;;;;;;28.63;13.80;;;-2.70;81.20;;;;;;5050740;28;20189;-72
2023/12/04 07:58:21;;;;;;;25.80;13.53;;;-2.60;80.80;;;;;;5042694;28;20609;-72
2023/12/04 08:00:47;;;;;;;30.60;13.35;;;-2.70;80.50;;;;;;5045203;28;20311;-71
2023/12/04 08:03:13;;;;;;;23.15;13.15;;;-2.50;80.60;;;;;;5047734;28;20189;-71
2023/12/04 08:05:38;;;;;;;30.77;13.03;;;-2.50;80.50;;;;;;5050108;28;20326;-73
2023/12/04 08:08:04;;;;;;;28.53;13.57;;;-2.50;80.50;;;;;;5043623;28;20731;-71
2023/12/04 08:10:31;;;;;;;29.93;13.17;;;-2.40;80.60;;;;;;5043481;28;20235;-71
2023/12/04 08:12:57;;;;;;;27.20;13.13;;;-2.30;80.60;;;;;;5038685;28;20204;-71
2023/12/04 08:15:22;;;;;;;24.53;12.93;;;-2.30;80.50;;;;;;5047371;28;20181;-72
2023/12/04 08:17:48;;;;;;;30.33;11.90;;;-2.30;80.50;;;;;;5039484;28;20308;-71
2023/12/04 08:20:14;;;;;;;27.03;14.00;;;-2.10;80.30;;;;;;5047498;28;20247;-73
2023/12/04 08:22:44;;;;;;;23.90;11.52;;;-2.00;80.20;;;;;;5038877;28;20686;-72
2023/12/04 08:25:11;;;;;;;26.25;12.27;;;-1.90;80.00;;;;;;5047770;28;20183;-72
2023/12/04 08:27:36;;;;;;;31.73;13.60;;;-1.90;79.90;;;;;;5039753;28;20205;-72
2023/12/04 08:30:04;;;;;;;24.27;11.63;;;-1.90;79.20;;;;;;5046052;28;20341;-73
2023/12/04 08:32:30;;;;;;;23.85;11.93;;;-1.70;79.20;;;;;;5039512;28;20220;-71
2023/12/04 08:34:56;;;;;;;21.70;11.03;;;-1.60;78.70;;;;;;5045979;28;20298;-73
2023/12/04 08:37:21;;;;;;;24.50;12.23;;;-1.60;78.10;;;;;;5048799;28;20192;-72
2023/12/04 08:39:47;;;;;;;22.73;11.60;;;-1.60;77.80;;;;;;5042710;28;20814;-72
2023/12/04 08:42:12;;;;;;;20.03;11.07;;;-1.50;77.40;;;;;;5045450;28;20230;-72
2023/12/04 08:44:38;;;;;;;27.17;13.10;;;-1.40;77.00;;;;;;5046623;28;20177;-72
2023/12/04 08:47:05;;;;;;;28.53;12.90;;;-1.40;76.80;;;;;;5042937;28;20173;-72
2023/12/04 08:49:30;;;;;;;33.58;12.35;;;-1.40;76.20;;;;;;5057915;28;20352;-72
2023/12/04 08:51:56;;;;;;;19.73;11.50;;;-1.40;76.20;;;;;;5043244;28;20186;-72
2023/12/04 08:54:23;;;;;;;23.43;10.60;;;-1.30;76.40;;;;;;5043412;28;20428;-72
2023/12/04 08:56:48;;;;;;;27.75;11.73;;;-1.10;76.20;;;;;;5040443;28;20185;-72
2023/12/04 08:59:14;;;;;;;25.30;11.70;;;-1.10;75.50;;;;;;5037931;28;20538;-72
2023/12/04 09:01:40;;;;;;;21.87;11.67;;;-1.20;75.50;;;;;;5041249;28;20188;-72
2023/12/04 09:04:08;;;;;;;22.40;12.03;;;-1.10;75.50;;;;;;5038428;28;20619;-72
2023/12/04 09:06:34;;;;;;;23.20;12.10;;;-1.10;75.50;;;;;;5042764;28;20430;-72
2023/12/04 09:08:59;;;;;;;23.87;12.23;;;-1.10;75.70;;;;;;5042714;28;20200;-71
2023/12/04 09:11:25;;;;;;;26.77;12.10;;;-1.30;75.40;;;;;;5046273;28;20716;-72
2023/12/04 09:13:50;;;;;;;22.73;11.43;;;-1.10;75.90;;;;;;5043932;28;20200;-73
2023/12/04 09:16:16;;;;;;;27.43;12.50;;;-1.00;76.10;;;;;;5044237;28;20234;-71
2023/12/04 09:18:42;;;;;;;29.58;10.98;;;-0.80;75.90;;;;;;5046994;28;20188;-71
2023/12/04 09:21:08;;;;;;;27.53;11.73;;;-0.90;75.40;;;;;;5044304;28;20370;-73
2023/12/04 09:23:35;;;;;;;22.87;11.27;;;-0.90;75.20;;;;;;5045341;28;20185;-72
2023/12/04 09:26:00;;;;;;;21.50;10.13;;;-0.70;75.40;;;;;;5041992;28;20223;-71
2023/12/04 09:28:26;;;;;;;22.73;10.87;;;-0.60;75.10;;;;;;5038157;28;20192;-71
2023/12/04 09:30:51;;;;;;;21.63;10.93;;;-0.50;74.90;;;;;;5038917;28;20284;-71
2023/12/04 09:33:17;;;;;;;22.43;11.83;;;-0.40;74.30;;;;;;5038564;28;20185;-72
2023/12/04 09:35:42;;;;;;;20.50;10.80;;;-0.30;74.20;;;;;;5037322;28;20181;-72
2023/12/04 09:38:08;;;;;;;25.37;11.10;;;-0.30;74.20;;;;;;5041115;28;20212;-72
2023/12/04 09:40:34;;;;;;;22.20;11.50;;;-0.40;73.60;;;;;;5042640;28;20220;-72
2023/12/04 09:42:59;;;;;;;20.33;10.70;;;-0.40;73.60;;;;;;5038820;28;20560;-72
2023/12/04 09:45:25;;;;;;;22.77;11.50;;;-0.40;73.50;;;;;;5042058;28;20669;-72
2023/12/04 09:47:52;;;;;;;24.05;12.77;;;-0.40;73.60;;;;;;5039876;28;20183;-73
2023/12/04 09:50:20;;;;;;;27.67;11.40;;;-0.40;74.00;;;;;;5036908;28;20204;-71
2023/12/04 09:52:52;;;;;;;24.10;11.85;;;-0.30;74.20;;;;;;5038626;28;20238;-73
2023/12/04 09:55:18;;;;;;;18.20;10.60;;;-0.30;73.70;;;;;;5046205;28;20184;-72
2023/12/04 09:57:49;;;;;;;22.50;10.93;;;-0.20;73.90;;;;;;5044559;28;20183;-72
2023/12/04 10:00:15;;;;;;;19.77;9.68;;;-0.20;73.90;;;;;;5042241;28;20216;-72
2023/12/04 10:02:41;;;;;;;26.58;11.38;;;-0.10;73.90;;;;;;5037433;28;20218;-73
2023/12/04 10:05:11;;;;;;;23.63;10.10;;;-0.10;73.70;;;;;;5043716;28;20172;-71
2023/12/04 10:07:37;;;;;;;21.90;10.93;;;-0.20;73.50;;;;;;5041447;28;20180;-73
2023/12/04 10:10:07;;;;;;;19.37;10.03;;;-0.30;73.70;;;;;;5045082;28;20707;-73
2023/12/04 10:12:35;;;;;;;18.13;9.70;;;-0.20;74.20;;;;;;5042238;28;20263;-72
2023/12/04 10:15:08;;;;;;;20.73;10.20;;;0.00;74.50;;;;;;5043488;28;20180;-71
2023/12/04 10:17:38;;;;;;;17.17;10.32;;;0.10;73.90;;;;;;5042561;28;20185;-73
2023/12/04 10:20:12;;;;;;;17.85;10.20;;;0.30;73.70;;;;;;5042996;28;20266;-72
2023/12/04 10:22:52;;;;;;;18.13;10.48;;;0.40;73.60;;;;;;5043249;28;20553;-72
2023/12/04 10:25:18;;;;;;;20.60;9.85;;;0.50;73.50;;;;;;5037665;28;20177;-71
2023/12/04 10:27:45;;;;;;;20.58;9.23;;;0.60;73.30;;;;;;5042244;28;20185;-71
2023/12/04 10:30:30;;;;;;;23.17;12.23;;;0.50;73.00;;;;;;5038366;28;20212;-72
2023/12/04 10:33:02;;;;;;;22.38;9.30;;;0.50;73.00;;;;;;5047631;28;20187;-72
2023/12/04 10:35:32;;;;;;;19.48;8.88;;;0.40;73.00;;;;;;5033708;28;20724;-72
2023/12/04 10:37:59;;;;;;;15.80;9.82;;;0.60;73.20;;;;;;5042230;28;20185;-74
2023/12/04 10:40:33;;;;;;;21.02;9.48;;;0.60;73.00;;;;;;5036686;28;20216;-72
2023/12/04 10:43:14;;;;;;;19.65;10.38;;;0.40;73.50;;;;;;5042451;28;20188;-73
2023/12/04 10:45:41;;;;;;;20.75;9.63;;;0.50;74.00;;;;;;5040389;28;20189;-73
2023/12/04 10:48:08;;;;;;;17.67;10.13;;;0.40;74.30;;;;;;5046630;28;20686;-72
2023/12/04 10:50:38;;;;;;;15.93;8.98;;;0.40;74.50;;;;;;5037561;28;20216;-73
2023/12/04 10:53:04;;;;;;;20.63;9.30;;;0.60;74.80;;;;;;5042319;28;20294;-72
2023/12/04 10:55:34;;;;;;;21.77;10.77;;;0.90;74.90;;;;;;5041597;28;20217;-73
2023/12/04 10:58:01;;;;;;;25.02;11.18;;;1.10;74.30;;;;;;5042075;28;20180;-73
2023/12/04 11:00:29;;;;;;;24.65;10.93;;;1.10;73.60;;;;;;5038989;28;20255;-73
2023/12/04 11:02:57;;;;;;;24.83;12.43;;;1.10;73.30;;;;;;5049414;28;20179;-73
2023/12/04 11:05:24;;;;;;;24.48;11.52;;;1.20;73.30;;;;;;5039447;28;20189;-72
2023/12/04 11:08:01;;;;;;;17.50;10.20;;;1.30;73.20;;;;;;5036255;28;20330;-73
2023/12/04 11:10:31;;;;;;;21.15;10.70;;;1.30;73.00;;;;;;5044406;28;20644;-71
2023/12/04 11:13:03;;;;;;;22.15;10.98;;;1.20;73.00;;;;;;5039699;28;20591;-72
2023/12/04 11:15:31;;;;;;;23.05;12.38;;;1.20;73.30;;;;;;5044040;28;20188;-73
2023/12/04 11:18:02;;;;;;;23.88;11.27;;;1.30;73.50;;;;;;5039627;28;20556;-73
2023/12/04 11:20:31;;;;;;;16.27;9.77;;;1.30;73.50;;;;;;5042989;28;20366;-72
2023/12/04 11:22:57;;;;;;;22.30;10.20;;;1.20;73.00;;;;;;5045951;28;20189;-73
2023/12/04 11:25:24;;;;;;;18.77;9.75;;;1.30;73.20;;;;;;5042767;28;20717;-74
2023/12/04 11:27:52;;;;;;;17.73;9.85;;;1.40;73.20;;;;;;5045057;28;20267;-74
2023/12/04 11:30:18;;;;;;;22.77;10.48;;;1.50;72.90;;;;;;5044095;28;20213;-72
2023/12/04 11:32:45;;;;;;;14.82;9.82;;;1.50;73.30;;;;;;5044209;28;20267;-73
2023/12/04 11:35:18;;;;;;;19.65;10.88;;;1.60;73.60;;;;;;5041699;28;20633;-73
2023/12/04 11:37:47;;;;;;;20.80;10.70;;;1.70;73.90;;;;;;5046336;28;20188;-74
2023/12/04 11:40:15;;;;;;;25.00;11.20;;;1.90;73.90;;;;;;5039346;28;20479;-72
2023/12/04 11:42:41;;;;;;;23.33;11.13;;;1.90;73.20;;;;;;5046447;28;20569;-74
2023/12/04 11:45:07;;;;;;;19.53;10.30;;;1.90;72.90;;;;;;5043231;28;20489;-74
2023/12/04 11:47:50;;;;;;;22.02;10.95;;;2.00;73.00;;;;;;5051141;28;20527;-74
2023/12/04 11:50:18;;;;;;;18.58;10.88;;;2.10;72.90;;;;;;5044027;28;20303;-73
2023/12/04 11:52:44;;;;;;;27.52;11.75;;;2.10;72.60;;;;;;5046885;28;20258;-72
2023/12/04 11:55:09;;;;;;;20.40;10.50;;;1.90;72.40;;;;;;5052066;28;20184;-74
2023/12/04 11:57:36;;;;;;;23.73;11.00;;;2.00;73.00;;;;;;5048649;28;20185;-73
2023/12/04 12:00:14;;;;;;;24.05;11.40;;;1.90;73.20;;;;;;5037756;28;20228;-72
2023/12/04 12:02:41;;;;;;;20.20;10.60;;;1.90;73.60;;;;;;5039591;28;20184;-73
2023/12/04 12:05:08;;;;;;;21.63;10.57;;;1.90;74.30;;;;;;5039069;28;20621;-73
2023/12/04 12:07:34;;;;;;;20.10;10.98;;;1.90;74.50;;;;;;5040920;28;20208;-74
2023/12/04 12:09:59;;;;;;;19.95;11.73;;;1.80;74.80;;;;;;5040973;28;20533;-73
2023/12/04 12:12:28;;;;;;;19.33;10.80;;;1.80;75.10;;;;;;5041461;28;20178;-74
2023/12/04 12:14:53;;;;;;;23.05;11.30;;;1.70;75.40;;;;;;5043873;28;20666;-74
2023/12/04 12:17:19;;;;;;;21.23;10.70;;;1.60;75.80;;;;;;5041439;28;20196;-73
2023/12/04 12:19:45;;;;;;;23.80;12.43;;;1.70;76.40;;;;;;5038860;28;20231;-74
2023/12/04 12:22:11;;;;;;;21.20;11.00;;;1.70;76.40;;;;;;5043991;28;20272;-73
2023/12/04 12:24:37;;;;;;;23.40;12.55;;;1.80;76.70;;;;;;5045486;28;20218;-72